Time;durP1;ratioP1;P1;durP2;ratioP2;P2;SDS_P1;SDS_P2;PMS_P1;PMS_P2;Temp;Humidity;BMP_temperature;BMP_pressure;BME280_temperature;BME280_humidity;BME280_pressure;Samples;Min_cycle;Max_cycle;Signal;HPM_P1;HPM_P2
2022/08/31 00:04:52;;;;;;;1999.90;999.90;;;17.80;99.90;;;;;;5049524;28;20445;-67
2022/08/31 00:07:19;;;;;;;1999.90;999.90;;;17.80;99.90;;;;;;5047389;28;20478;-67
2022/08/31 00:09:47;;;;;;;1999.90;999.90;;;17.80;99.90;;;;;;5048446;28;20454;-67
2022/08/31 00:12:14;;;;;;;1999.90;999.90;;;17.70;99.90;;;;;;5050067;28;20470;-68
2022/08/31 00:14:40;;;;;;;1999.90;999.90;;;17.70;99.90;;;;;;5048053;28;21161;-68
2022/08/31 00:17:07;;;;;;;1999.90;999.90;;;17.70;99.90;;;;;;5048580;28;20591;-68
2022/08/31 00:19:34;;;;;;;1999.90;999.90;;;17.70;99.90;;;;;;5047285;28;20462;-67
2022/08/31 00:22:00;;;;;;;1999.90;999.90;;;17.70;99.90;;;;;;5047228;28;20451;-68
2022/08/31 00:24:27;;;;;;;1999.90;999.90;;;17.70;99.90;;;;;;5049130;28;20507;-68
2022/08/31 00:26:55;;;;;;;1999.90;999.90;;;17.70;99.90;;;;;;5048575;28;20458;-67
2022/08/31 00:29:21;;;;;;;1999.90;999.90;;;17.60;99.90;;;;;;5047599;28;20458;-69
2022/08/31 00:31:48;;;;;;;1999.90;999.90;;;17.60;99.90;;;;;;5045514;28;20474;-67
2022/08/31 00:34:15;;;;;;;1999.90;999.90;;;17.50;99.90;;;;;;5049105;28;20450;-66
2022/08/31 00:36:41;;;;;;;1999.90;999.90;;;17.60;99.90;;;;;;5049671;28;21003;-68
2022/08/31 00:39:08;;;;;;;1999.90;999.90;;;17.60;99.90;;;;;;5048552;28;20462;-68
2022/08/31 00:41:37;;;;;;;1999.90;999.90;;;17.50;99.90;;;;;;5049024;28;20458;-67
2022/08/31 00:44:07;;;;;;;1999.90;999.90;;;17.60;99.90;;;;;;5048085;28;20507;-67
2022/08/31 00:46:36;;;;;;;1999.90;999.90;;;17.50;99.90;;;;;;5049812;28;20454;-67
2022/08/31 00:49:06;;;;;;;1999.90;999.90;;;17.50;99.90;;;;;;5048240;28;20494;-68
2022/08/31 00:51:37;;;;;;;1999.90;999.90;;;17.50;99.90;;;;;;5048532;28;20474;-68
2022/08/31 00:54:06;;;;;;;1999.90;999.90;;;17.50;99.90;;;;;;5046700;28;20470;-67
2022/08/31 00:56:33;;;;;;;1999.90;999.90;;;17.50;99.90;;;;;;5048307;28;20458;-68
2022/08/31 00:59:00;;;;;;;1999.90;999.90;;;17.60;99.90;;;;;;5047108;28;20823;-67
2022/08/31 01:01:29;;;;;;;1999.90;999.90;;;17.60;99.90;;;;;;5042980;28;20934;-67
2022/08/31 01:03:56;;;;;;;1999.90;999.90;;;17.60;99.90;;;;;;5047783;28;20462;-67
2022/08/31 01:06:23;;;;;;;1999.90;999.90;;;17.60;99.90;;;;;;5047267;28;20563;-67
2022/08/31 01:08:51;;;;;;;1999.90;999.90;;;17.50;99.90;;;;;;5047257;28;20490;-68
2022/08/31 01:11:19;;;;;;;1999.90;999.90;;;17.50;99.90;;;;;;5048781;28;20532;-69
2022/08/31 01:13:47;;;;;;;1999.90;999.90;;;17.30;99.90;;;;;;5047271;28;20508;-68
2022/08/31 01:16:19;;;;;;;1999.90;999.90;;;17.30;99.90;;;;;;5046013;28;20455;-70
2022/08/31 01:18:49;;;;;;;1999.90;999.90;;;17.20;99.90;;;;;;5046015;28;20489;-68
2022/08/31 01:21:23;;;;;;;1999.90;999.90;;;17.20;99.90;;;;;;5045286;28;20509;-67
2022/08/31 01:23:53;;;;;;;1999.90;999.90;;;17.20;99.90;;;;;;5046493;28;20461;-67
2022/08/31 01:26:24;;;;;;;1999.90;999.90;;;17.20;99.90;;;;;;5046969;28;20934;-69
2022/08/31 01:28:56;;;;;;;1999.90;999.90;;;17.10;99.90;;;;;;5048132;28;20532;-69
2022/08/31 01:31:26;;;;;;;1999.90;999.90;;;17.10;99.90;;;;;;5045993;28;21000;-70
2022/08/31 01:33:53;;;;;;;1999.90;999.90;;;17.10;99.90;;;;;;5044000;28;20458;-69
2022/08/31 01:36:20;;;;;;;1999.90;999.90;;;17.10;99.90;;;;;;5046559;28;20466;-70
2022/08/31 01:38:47;;;;;;;1999.90;999.90;;;17.10;99.90;;;;;;5046654;28;20486;-68
2022/08/31 01:41:16;;;;;;;1999.90;999.90;;;17.10;99.90;;;;;;5052384;28;20611;-69
2022/08/31 01:43:43;;;;;;;1999.90;999.90;;;17.10;99.90;;;;;;5051595;28;20516;-70
2022/08/31 01:46:11;;;;;;;1999.90;999.90;;;17.00;99.90;;;;;;5045721;28;20458;-69
2022/08/31 01:48:40;;;;;;;1999.90;999.90;;;17.00;99.90;;;;;;5047359;28;20510;-70
2022/08/31 01:51:07;;;;;;;1999.90;999.90;;;16.90;99.90;;;;;;5045659;28;20584;-69
2022/08/31 01:53:33;;;;;;;1999.90;999.90;;;16.80;99.90;;;;;;5047745;28;20853;-70
2022/08/31 01:56:00;;;;;;;1999.90;999.90;;;16.80;99.90;;;;;;5045643;28;20535;-69
2022/08/31 01:58:28;;;;;;;1999.90;999.90;;;16.70;99.90;;;;;;5047849;28;20819;-69
2022/08/31 02:00:55;;;;;;;1999.90;999.90;;;16.60;99.90;;;;;;5046803;28;20462;-69
2022/08/31 02:03:21;;;;;;;1999.90;999.90;;;16.60;99.90;;;;;;5047517;28;20454;-69
2022/08/31 02:05:48;;;;;;;1999.90;999.90;;;16.50;99.90;;;;;;5048234;28;20462;-70
2022/08/31 02:08:14;;;;;;;1999.90;999.90;;;16.40;99.90;;;;;;5046819;28;20542;-69
2022/08/31 02:10:41;;;;;;;1999.90;999.90;;;16.40;99.90;;;;;;5048308;28;20807;-69
2022/08/31 02:13:08;;;;;;;1999.90;999.90;;;16.30;99.90;;;;;;5046591;28;20482;-69
2022/08/31 02:15:38;;;;;;;1999.90;999.90;;;16.30;99.90;;;;;;5047168;28;20458;-69
2022/08/31 02:18:05;;;;;;;1999.90;999.90;;;16.20;99.90;;;;;;5046112;28;20474;-69
2022/08/31 02:20:31;;;;;;;1999.90;999.90;;;16.20;99.90;;;;;;5042517;28;20511;-70
2022/08/31 02:23:01;;;;;;;1999.90;999.90;;;16.20;99.90;;;;;;5047162;28;20454;-70
2022/08/31 02:25:28;;;;;;;1999.90;999.90;;;16.20;99.90;;;;;;5047355;28;20957;-69
2022/08/31 02:27:55;;;;;;;1999.90;999.90;;;16.20;99.90;;;;;;5045570;28;20481;-69
2022/08/31 02:30:22;;;;;;;1999.90;999.90;;;16.20;99.90;;;;;;5047474;28;20975;-69
2022/08/31 02:32:50;;;;;;;1999.90;999.90;;;16.10;99.90;;;;;;5048261;28;20474;-70
2022/08/31 02:35:17;;;;;;;1999.90;999.90;;;16.10;99.90;;;;;;5047656;28;20470;-69
2022/08/31 02:37:44;;;;;;;1999.90;999.90;;;16.00;99.90;;;;;;5048539;28;20648;-69
2022/08/31 02:40:10;;;;;;;1999.90;999.90;;;15.90;99.90;;;;;;5045614;28;20462;-69
2022/08/31 02:42:38;;;;;;;1999.90;999.90;;;15.90;99.90;;;;;;5047097;28;20934;-69
2022/08/31 02:45:06;;;;;;;1999.90;999.90;;;15.90;99.90;;;;;;5045240;28;20458;-69
2022/08/31 02:47:33;;;;;;;1999.90;999.90;;;15.90;99.90;;;;;;5040846;28;20485;-71
2022/08/31 02:50:03;;;;;;;1999.90;999.90;;;15.90;99.90;;;;;;5045924;28;20462;-69
2022/08/31 02:52:30;;;;;;;1999.90;999.90;;;15.90;99.90;;;;;;5045884;28;20482;-70
2022/08/31 02:54:56;;;;;;;1999.90;999.90;;;15.80;99.90;;;;;;5045886;28;20454;-69
2022/08/31 02:57:23;;;;;;;1999.90;999.90;;;15.90;99.90;;;;;;5046609;28;20536;-69
2022/08/31 02:59:50;;;;;;;1999.90;999.90;;;15.90;99.90;;;;;;5048776;28;20462;-70
2022/08/31 03:02:17;;;;;;;1999.90;999.90;;;15.90;99.90;;;;;;5046049;28;20508;-70
2022/08/31 03:04:43;;;;;;;1999.90;999.90;;;15.90;99.90;;;;;;5048394;28;21010;-69
2022/08/31 03:07:11;;;;;;;1999.90;999.90;;;15.80;99.90;;;;;;5046884;28;20489;-69
2022/08/31 03:09:38;;;;;;;1999.90;999.90;;;15.80;99.90;;;;;;5047771;28;20462;-69
2022/08/31 03:12:05;;;;;;;1999.90;999.90;;;15.80;99.90;;;;;;5046210;28;20485;-70
2022/08/31 03:14:31;;;;;;;1999.90;999.90;;;15.80;99.90;;;;;;5050935;28;20504;-70
2022/08/31 03:16:58;;;;;;;1999.90;999.90;;;15.70;99.90;;;;;;5050205;28;20926;-70
2022/08/31 03:19:25;;;;;;;1999.90;999.90;;;15.70;99.90;;;;;;5051263;28;20462;-69
2022/08/31 03:21:51;;;;;;;1999.90;999.90;;;15.70;99.90;;;;;;5052255;28;21231;-69
2022/08/31 03:24:20;;;;;;;1999.90;999.90;;;15.70;99.90;;;;;;5051653;28;20455;-69
2022/08/31 03:26:48;;;;;;;1999.90;999.90;;;15.70;99.90;;;;;;5051452;28;20450;-69
2022/08/31 03:29:15;;;;;;;1999.90;999.90;;;15.70;99.90;;;;;;5050788;28;20478;-69
2022/08/31 03:31:41;;;;;;;1999.90;999.90;;;15.70;99.90;;;;;;5052230;28;20508;-69
2022/08/31 03:34:08;;;;;;;1999.90;999.90;;;15.60;99.90;;;;;;5050418;28;20536;-69
2022/08/31 03:36:35;;;;;;;1999.90;999.90;;;15.50;99.90;;;;;;5051699;28;20953;-70
2022/08/31 03:39:02;;;;;;;1999.90;999.90;;;15.60;99.90;;;;;;5049628;28;20481;-70
2022/08/31 03:41:30;;;;;;;1999.90;999.90;;;15.60;99.90;;;;;;5051029;28;20870;-69
2022/08/31 03:43:56;;;;;;;1999.90;999.90;;;15.50;99.90;;;;;;5051046;28;20512;-69
2022/08/31 03:46:23;;;;;;;1999.90;999.90;;;15.60;99.90;;;;;;5051488;28;20450;-69
2022/08/31 03:48:50;;;;;;;1999.90;999.90;;;15.70;99.90;;;;;;5051512;28;20813;-69
2022/08/31 03:51:18;;;;;;;1999.90;999.90;;;15.80;99.90;;;;;;5048819;28;21827;-69
2022/08/31 03:53:45;;;;;;;1999.90;999.90;;;15.90;99.90;;;;;;5051565;28;20474;-69
2022/08/31 03:56:12;;;;;;;1999.90;999.90;;;16.00;99.90;;;;;;5050453;28;20458;-68
2022/08/31 03:58:40;;;;;;;1999.90;999.90;;;16.00;99.90;;;;;;5051751;28;20572;-68
2022/08/31 04:01:07;;;;;;;1999.90;999.90;;;16.00;99.90;;;;;;5050824;28;20451;-70
2022/08/31 04:03:35;;;;;;;1999.90;999.90;;;16.10;99.90;;;;;;5049980;28;20511;-70
2022/08/31 04:06:01;;;;;;;1999.90;999.90;;;16.00;99.90;;;;;;5050510;28;20458;-70
2022/08/31 04:08:28;;;;;;;1999.90;999.90;;;16.00;99.90;;;;;;5068899;22;20495;-74
2022/08/31 04:10:55;;;;;;;1999.90;999.90;;;15.90;99.90;;;;;;5049044;28;20492;-74
2022/08/31 04:13:22;;;;;;;1999.90;999.90;;;15.90;99.90;;;;;;5048813;28;20628;-71
2022/08/31 04:15:50;;;;;;;1999.90;999.90;;;15.90;99.90;;;;;;5048299;28;20462;-72
2022/08/31 04:18:19;;;;;;;1999.90;999.90;;;15.90;99.90;;;;;;5049622;28;20490;-72
2022/08/31 04:20:46;;;;;;;1999.90;999.90;;;16.00;99.90;;;;;;5050357;28;20462;-71
2022/08/31 04:23:12;;;;;;;1999.90;999.90;;;15.90;99.90;;;;;;5049869;28;20463;-72
2022/08/31 04:25:40;;;;;;;1999.90;999.90;;;15.90;99.90;;;;;;5042316;28;20874;-72
2022/08/31 04:28:08;;;;;;;1999.90;999.90;;;15.90;99.90;;;;;;5046482;28;21059;-72
2022/08/31 04:30:38;;;;;;;1999.90;999.90;;;16.00;99.90;;;;;;5048514;28;20520;-72
2022/08/31 04:33:06;;;;;;;1999.90;999.90;;;16.20;99.90;;;;;;5048153;28;20482;-72
2022/08/31 04:35:33;;;;;;;1999.90;999.90;;;15.90;99.90;;;;;;5049002;28;20508;-72
2022/08/31 04:38:00;;;;;;;1999.90;999.90;;;16.00;99.90;;;;;;5049967;28;20545;-71
2022/08/31 04:40:26;;;;;;;1999.90;999.90;;;15.90;99.90;;;;;;5047410;28;20504;-72
2022/08/31 04:42:53;;;;;;;1999.90;999.90;;;16.00;99.90;;;;;;5050696;28;20496;-69
2022/08/31 04:45:20;;;;;;;1999.90;999.90;;;16.00;99.90;;;;;;5047641;28;20512;-72
2022/08/31 04:47:47;;;;;;;1999.90;999.90;;;16.10;99.90;;;;;;5049775;28;21015;-71
2022/08/31 04:50:15;;;;;;;1999.90;999.90;;;16.00;99.90;;;;;;5048455;28;20466;-70
2022/08/31 04:52:42;;;;;;;1999.90;999.90;;;15.90;99.90;;;;;;5045637;28;20486;-70
2022/08/31 04:55:10;;;;;;;1999.90;999.90;;;15.90;99.90;;;;;;5047208;28;20466;-70
2022/08/31 04:57:39;;;;;;;1999.90;999.90;;;15.90;99.90;;;;;;5048726;28;20946;-72
2022/08/31 05:00:07;;;;;;;1999.90;999.90;;;15.90;99.90;;;;;;5047846;28;20458;-68
2022/08/31 05:02:35;;;;;;;1999.90;999.90;;;15.90;99.90;;;;;;5049207;28;20462;-71
2022/08/31 05:05:02;;;;;;;1999.90;999.90;;;15.90;99.90;;;;;;5048285;28;20489;-71
2022/08/31 05:07:30;;;;;;;1999.90;999.90;;;15.90;99.90;;;;;;5049004;28;20473;-74
2022/08/31 05:09:56;;;;;;;1999.90;999.90;;;15.80;99.90;;;;;;5047717;28;20544;-74
2022/08/31 05:12:23;;;;;;;1999.90;999.90;;;15.70;99.90;;;;;;5048409;28;20458;-72
2022/08/31 05:14:50;;;;;;;1999.90;999.90;;;15.70;99.90;;;;;;5047731;28;20486;-72
2022/08/31 05:17:16;;;;;;;1999.90;999.90;;;15.70;99.90;;;;;;5047445;28;21016;-71
2022/08/31 05:19:43;;;;;;;1999.90;999.90;;;15.70;99.90;;;;;;5047830;28;20473;-74
2022/08/31 05:22:10;;;;;;;1999.90;999.90;;;15.80;99.90;;;;;;5046114;28;20534;-75
2022/08/31 05:24:38;;;;;;;1999.90;999.90;;;15.80;99.90;;;;;;5044608;28;21000;-71
2022/08/31 05:27:05;;;;;;;1999.90;999.90;;;15.80;99.90;;;;;;5048324;28;20531;-70
2022/08/31 05:29:32;;;;;;;1999.90;999.90;;;15.80;99.90;;;;;;5047456;28;20490;-71
2022/08/31 05:31:59;;;;;;;1999.90;999.90;;;15.80;99.90;;;;;;5046868;28;20454;-72
2022/08/31 05:34:26;;;;;;;1999.90;999.90;;;15.90;99.90;;;;;;5045449;28;20855;-70
2022/08/31 05:36:55;;;;;;;1999.90;999.90;;;16.00;99.90;;;;;;5049563;28;20515;-70
2022/08/31 05:39:22;;;;;;;1999.90;999.90;;;15.90;99.90;;;;;;5050557;28;20844;-73
2022/08/31 05:41:50;;;;;;;1999.90;999.90;;;16.00;99.90;;;;;;5059459;28;20930;-71
2022/08/31 05:44:18;;;;;;;1999.90;999.90;;;16.10;99.90;;;;;;5049902;28;20528;-70
2022/08/31 05:46:45;;;;;;;1999.90;999.90;;;16.10;99.90;;;;;;5051715;28;20481;-71
2022/08/31 05:49:12;;;;;;;1999.90;999.90;;;16.20;99.90;;;;;;5051693;28;20531;-72
2022/08/31 05:51:39;;;;;;;1999.90;999.90;;;16.20;99.90;;;;;;5052181;28;20472;-72
2022/08/31 05:54:09;;;;;;;1999.90;999.90;;;16.20;99.90;;;;;;5051508;28;20482;-70
2022/08/31 05:56:36;;;;;;;1999.90;999.90;;;16.10;99.90;;;;;;5051798;28;20450;-71
2022/08/31 05:59:04;;;;;;;1999.90;999.90;;;16.20;99.90;;;;;;5050703;28;20537;-72
2022/08/31 06:01:33;;;;;;;1999.90;999.90;;;16.20;99.90;;;;;;5052269;28;20461;-75
2022/08/31 06:04:01;;;;;;;1999.90;999.90;;;16.20;99.90;;;;;;5051954;28;20503;-73
2022/08/31 06:06:28;;;;;;;1999.90;999.90;;;16.30;99.90;;;;;;5051291;28;20446;-72
2022/08/31 06:08:55;;;;;;;1999.90;999.90;;;16.20;99.90;;;;;;5051466;28;20512;-71
2022/08/31 06:11:26;;;;;;;1999.90;999.90;;;16.20;99.90;;;;;;5050474;28;20466;-71
2022/08/31 06:13:54;;;;;;;1999.90;999.90;;;16.30;99.90;;;;;;5048624;28;20530;-72
2022/08/31 06:16:23;;;;;;;1999.90;999.90;;;16.30;99.90;;;;;;5047111;28;20494;-71
2022/08/31 06:18:50;;;;;;;1999.90;999.90;;;16.40;99.90;;;;;;5046672;28;20577;-72
2022/08/31 06:21:19;;;;;;;1999.90;999.90;;;16.40;99.90;;;;;;5046654;28;20512;-72
2022/08/31 06:23:47;;;;;;;1999.90;999.90;;;16.60;99.90;;;;;;5041200;28;20541;-72
2022/08/31 06:26:15;;;;;;;1999.90;999.90;;;16.70;99.90;;;;;;5048874;28;20454;-72
2022/08/31 06:28:43;;;;;;;1999.90;999.90;;;16.70;99.90;;;;;;5048751;28;20477;-71
2022/08/31 06:31:17;;;;;;;1999.90;999.90;;;16.80;99.90;;;;;;5046683;28;20462;-69
2022/08/31 06:33:46;;;;;;;1999.90;999.90;;;16.90;99.90;;;;;;5048616;28;20560;-72
2022/08/31 06:36:15;;;;;;;1999.90;999.90;;;17.10;99.90;;;;;;5048995;28;20453;-72
2022/08/31 06:38:42;;;;;;;1999.90;999.90;;;17.30;99.90;;;;;;5047443;28;20912;-73
2022/08/31 06:41:15;;;;;;;1999.90;999.90;;;17.50;99.90;;;;;;5048666;28;20458;-72
2022/08/31 06:43:42;;;;;;;1999.90;999.90;;;17.80;99.90;;;;;;5049542;28;20870;-69
2022/08/31 06:46:09;;;;;;;1999.90;999.90;;;17.80;99.90;;;;;;5048134;28;20515;-72
2022/08/31 06:48:36;;;;;;;1999.90;999.90;;;17.90;99.90;;;;;;5049897;28;20487;-72
2022/08/31 06:51:06;;;;;;;1999.90;999.90;;;17.80;99.90;;;;;;5053169;28;20466;-72
2022/08/31 06:53:33;;;;;;;1999.90;999.90;;;18.00;99.90;;;;;;5051670;28;20856;-71
2022/08/31 06:56:04;;;;;;;1999.90;999.90;;;18.00;99.90;;;;;;5051608;28;20501;-72
2022/08/31 06:58:30;;;;;;;1999.90;999.90;;;18.00;99.90;;;;;;5051390;28;20572;-72
2022/08/31 07:00:58;;;;;;;1999.90;999.90;;;18.00;99.90;;;;;;5047982;28;21015;-72
2022/08/31 07:03:31;;;;;;;1999.90;999.90;;;18.00;99.90;;;;;;5040823;28;20826;-72
2022/08/31 07:06:03;;;;;;;1999.90;999.90;;;18.10;99.90;;;;;;5053701;28;20470;-72
2022/08/31 07:08:31;;;;;;;1999.90;999.90;;;18.20;99.90;;;;;;5047147;28;20520;-72
2022/08/31 07:10:58;;;;;;;1999.90;999.90;;;18.30;99.90;;;;;;5054742;28;20445;-70
2022/08/31 07:13:24;;;;;;;1999.90;999.90;;;18.30;99.90;;;;;;5054432;28;20966;-73
2022/08/31 07:15:51;;;;;;;1999.90;999.90;;;18.20;99.90;;;;;;5054518;28;20511;-72
2022/08/31 07:18:17;;;;;;;1999.90;999.90;;;18.10;99.90;;;;;;5054216;28;20524;-69
2022/08/31 07:20:44;;;;;;;1999.90;999.90;;;18.20;99.90;;;;;;5053386;28;20512;-72
2022/08/31 07:23:11;;;;;;;1999.90;999.90;;;18.40;99.90;;;;;;5054441;28;20492;-72
2022/08/31 07:25:39;;;;;;;1999.90;999.90;;;18.70;99.90;;;;;;5054441;28;20557;-70
2022/08/31 07:28:05;;;;;;;1999.90;999.90;;;18.70;99.90;;;;;;5054620;28;20469;-70
2022/08/31 07:30:41;;;;;;;1999.90;999.90;;;18.60;99.90;;;;;;5054356;28;20450;-72
2022/08/31 07:33:08;;;;;;;1999.90;999.90;;;18.80;99.90;;;;;;5054250;28;20992;-72
2022/08/31 07:35:34;;;;;;;1999.90;999.90;;;19.10;99.90;;;;;;5052988;28;20478;-72
2022/08/31 07:43:35;;;;;;;1999.90;999.90;;;20.20;99.90;;;;;;5054199;28;20481;-73
2022/08/31 07:46:01;;;;;;;1999.90;999.90;;;20.40;99.90;;;;;;5053809;28;20803;-69
2022/08/31 07:48:28;;;;;;;1999.90;999.90;;;20.70;99.90;;;;;;5054240;28;20520;-72
2022/08/31 07:50:55;;;;;;;1999.90;999.90;;;20.90;99.90;;;;;;5051697;28;21035;-72
2022/08/31 07:53:23;;;;;;;1999.90;999.90;;;20.50;99.90;;;;;;5053263;28;20501;-72
2022/08/31 07:55:55;;;;;;;1999.90;999.90;;;20.40;99.90;;;;;;5053818;28;20446;-72
2022/08/31 07:58:22;;;;;;;1999.90;999.90;;;20.50;99.90;;;;;;5053739;28;20466;-73
2022/08/31 08:00:49;;;;;;;1999.90;999.90;;;20.50;99.90;;;;;;5052683;28;20463;-73
2022/08/31 08:03:16;;;;;;;1999.90;999.90;;;20.80;99.90;;;;;;5052849;28;20443;-71
2022/08/31 08:05:43;;;;;;;1999.90;999.90;;;20.70;99.90;;;;;;5051930;28;20462;-72
2022/08/31 08:08:11;;;;;;;1999.90;999.90;;;20.60;99.90;;;;;;5053891;28;20490;-71
2022/08/31 08:10:47;;;;;;;1999.90;999.90;;;20.70;99.90;;;;;;5053183;28;20466;-70
2022/08/31 08:13:15;;;;;;;1999.90;999.90;;;20.90;99.90;;;;;;5051918;28;20878;-72
2022/08/31 08:15:42;;;;;;;1999.90;999.90;;;21.10;99.90;;;;;;5052993;28;20482;-71
2022/08/31 08:18:12;;;;;;;1999.90;999.90;;;21.00;99.90;;;;;;5052967;28;20486;-72
2022/08/31 08:20:39;;;;;;;1999.90;999.90;;;20.90;99.90;;;;;;5053507;28;20821;-70
2022/08/31 08:23:10;;;;;;;1999.90;999.90;;;20.80;99.90;;;;;;5053610;28;20950;-71
2022/08/31 08:25:36;;;;;;;1999.90;999.90;;;20.70;99.90;;;;;;5053993;28;20438;-72
2022/08/31 08:28:03;;;;;;;1999.90;999.90;;;20.60;99.90;;;;;;5053735;28;20481;-70
2022/08/31 08:30:31;;;;;;;1999.90;999.90;;;20.70;99.90;;;;;;5053152;28;20470;-72
2022/08/31 08:33:02;;;;;;;1999.90;999.90;;;21.00;99.90;;;;;;5053513;28;20504;-69
2022/08/31 08:35:29;;;;;;;1999.90;999.90;;;21.00;99.90;;;;;;5053280;28;20496;-72
2022/08/31 08:37:56;;;;;;;1999.90;999.90;;;21.20;99.90;;;;;;5053743;28;20478;-70
2022/08/31 08:40:38;;;;;;;1999.90;999.90;;;20.90;99.90;;;;;;5053762;28;20446;-72
2022/08/31 08:43:05;;;;;;;1999.90;999.90;;;21.20;99.90;;;;;;5053514;28;20442;-72
2022/08/31 08:45:33;;;;;;;1999.90;999.90;;;21.00;99.90;;;;;;5052188;28;20812;-72
2022/08/31 08:48:00;;;;;;;1999.90;999.90;;;21.00;99.90;;;;;;5053517;28;20516;-72
2022/08/31 08:50:28;;;;;;;1999.90;999.90;;;20.90;99.90;;;;;;5053854;28;20446;-71
2022/08/31 08:52:57;;;;;;;1999.90;999.90;;;20.90;99.90;;;;;;5053392;28;20454;-71
2022/08/31 08:55:34;;;;;;;1999.90;999.90;;;21.20;99.90;;;;;;5053031;28;20481;-73
2022/08/31 08:58:04;;;;;;;1999.90;999.90;;;21.30;99.90;;;;;;5053437;28;20470;-72
2022/08/31 09:00:33;;;;;;;1999.90;999.90;;;21.40;99.90;;;;;;5052209;28;20557;-72
2022/08/31 09:03:06;;;;;;;1999.90;999.90;;;21.40;99.90;;;;;;5050876;28;20551;-72
2022/08/31 09:05:54;;;;;;;1999.90;999.90;;;21.70;99.90;;;;;;5052868;28;20457;-71
2022/08/31 09:08:48;;;;;;;1999.90;999.90;;;21.70;99.90;;;;;;5053103;28;20478;-72
2022/08/31 09:11:21;;;;;;;1999.90;999.90;;;21.50;99.90;;;;;;5051818;28;20524;-70
2022/08/31 09:13:55;;;;;;;1999.90;999.90;;;21.60;99.90;;;;;;5052146;28;20512;-72
2022/08/31 09:16:37;;;;;;;1999.90;999.90;;;21.70;99.90;;;;;;5052928;28;20438;-72
2022/08/31 09:19:08;;;;;;;1999.90;999.90;;;22.00;99.90;;;;;;5051998;28;20473;-72
2022/08/31 09:21:39;;;;;;;1999.90;999.90;;;22.30;99.90;;;;;;5053187;28;20454;-72
2022/08/31 09:24:08;;;;;;;1999.90;999.90;;;22.40;99.90;;;;;;5050675;28;20958;-72
2022/08/31 09:26:53;;;;;;;1999.90;999.90;;;22.30;99.90;;;;;;5050954;28;20467;-72
2022/08/31 09:29:25;;;;;;;1999.90;999.90;;;22.00;99.90;;;;;;5052671;28;20497;-72
2022/08/31 09:32:02;;;;;;;1999.90;999.90;;;22.30;99.90;;;;;;5052896;28;20451;-72
2022/08/31 09:34:32;;;;;;;1999.90;999.90;;;22.40;99.90;;;;;;5052703;28;20466;-72
2022/08/31 09:37:15;;;;;;;1999.90;999.90;;;22.40;99.60;;;;;;5052726;28;20836;-72
2022/08/31 09:39:46;;;;;;;1999.90;999.90;;;22.40;99.50;;;;;;5051591;28;20482;-72
2022/08/31 09:42:20;;;;;;;1999.90;999.90;;;22.20;99.90;;;;;;5052957;28;20465;-70
2022/08/31 09:44:49;;;;;;;1999.90;999.90;;;22.20;99.90;;;;;;5052436;28;20434;-70
2022/08/31 09:47:40;;;;;;;1999.90;999.90;;;22.20;99.90;;;;;;5049236;28;20469;-72
2022/08/31 09:50:08;;;;;;;1999.90;999.90;;;22.00;99.90;;;;;;5051985;28;20473;-72
2022/08/31 09:55:24;;;;;;;1999.90;999.90;;;21.50;99.90;;;;;;5052246;28;20549;-72
2022/08/31 09:57:57;;;;;;;1999.90;999.90;;;21.30;99.90;;;;;;5052491;28;20446;-72
2022/08/31 10:00:35;;;;;;;1999.90;999.90;;;21.00;99.90;;;;;;5051234;28;20892;-70
2022/08/31 10:03:10;;;;;;;1999.90;999.90;;;21.10;99.90;;;;;;5052408;28;20446;-72
2022/08/31 10:05:40;;;;;;;1999.90;999.90;;;21.50;99.90;;;;;;5052328;28;20441;-73
2022/08/31 10:08:17;;;;;;;1999.90;999.90;;;21.80;99.90;;;;;;5050145;28;20863;-71
2022/08/31 10:10:45;;;;;;;1999.90;999.90;;;21.80;99.90;;;;;;5064526;23;21020;-71
2022/08/31 10:13:17;;;;;;;1999.90;999.90;;;22.00;99.90;;;;;;5051553;28;20453;-71
2022/08/31 10:15:51;;;;;;;1999.90;999.90;;;22.00;99.90;;;;;;5051344;28;20543;-69
2022/08/31 10:18:25;;;;;;;1999.90;999.90;;;21.90;99.90;;;;;;5051708;28;20438;-69
2022/08/31 10:20:57;;;;;;;1999.90;999.90;;;21.80;99.90;;;;;;5049622;28;20490;-70
2022/08/31 10:23:35;;;;;;;1999.90;999.90;;;21.70;99.90;;;;;;5053701;28;20453;-70
2022/08/31 10:26:06;;;;;;;1999.90;999.90;;;21.50;99.90;;;;;;5055148;28;20435;-69
2022/08/31 10:28:39;;;;;;;1999.90;999.90;;;21.50;99.90;;;;;;5055443;28;20454;-71
2022/08/31 10:31:12;;;;;;;1999.90;999.90;;;21.60;99.90;;;;;;5055603;28;20491;-69
2022/08/31 10:36:35;;;;;;;1999.90;999.90;;;21.30;99.90;;;;;;5051674;28;20613;-68
2022/08/31 10:39:03;;;;;;;1999.90;999.90;;;21.40;99.90;;;;;;5055205;28;20476;-72
2022/08/31 10:41:34;;;;;;;1999.90;999.90;;;21.40;99.90;;;;;;5055268;28;20453;-71
2022/08/31 10:44:08;;;;;;;1999.90;999.90;;;21.60;99.90;;;;;;5055051;28;20489;-73
2022/08/31 10:46:35;;;;;;;1999.90;999.90;;;21.80;99.90;;;;;;5055707;28;20556;-72
2022/08/31 10:49:06;;;;;;;1999.90;999.90;;;22.00;99.90;;;;;;5050050;28;20484;-73
2022/08/31 10:51:38;;;;;;;1999.90;999.90;;;21.90;99.90;;;;;;5049625;28;20465;-77
2022/08/31 10:54:23;;;;;;;1999.90;999.90;;;22.00;99.90;;;;;;5058355;28;20442;-72
2022/08/31 10:56:58;;;;;;;1999.90;999.90;;;22.20;99.90;;;;;;5048810;28;20546;-73
2022/08/31 10:59:32;;;;;;;1999.90;999.90;;;22.10;99.90;;;;;;5062132;28;20490;-72
2022/08/31 11:02:19;;;;;;;1999.90;999.90;;;22.10;99.90;;;;;;5054035;28;20457;-72
2022/08/31 11:04:57;;;;;;;1999.90;999.90;;;21.90;99.90;;;;;;5034237;28;20443;-72
2022/08/31 11:07:36;;;;;;;1999.90;999.90;;;22.00;99.90;;;;;;5041719;28;20465;-72
2022/08/31 11:10:14;;;;;;;1999.90;999.90;;;22.00;99.90;;;;;;5049428;28;21378;-73
2022/08/31 11:12:45;;;;;;;1999.90;999.90;;;22.00;99.90;;;;;;5048415;28;20463;-68
2022/08/31 11:15:47;;;;;;;1999.90;999.90;;;22.20;99.90;;;;;;5052374;28;21078;-71
2022/08/31 11:18:40;;;;;;;1999.90;999.90;;;22.20;99.90;;;;;;5059509;28;20438;-74
2022/08/31 11:21:38;;;;;;;1999.90;999.90;;;22.40;99.40;;;;;;5050638;28;20462;-72
2022/08/31 11:24:21;;;;;;;1999.90;999.90;;;22.30;98.40;;;;;;5045157;28;20896;-70
2022/08/31 11:26:56;;;;;;;1999.90;999.90;;;22.20;98.50;;;;;;5051703;28;20524;-72
2022/08/31 11:29:40;;;;;;;1999.90;999.90;;;22.40;98.90;;;;;;5053334;28;20480;-71
2022/08/31 11:32:14;;;;;;;1999.90;999.90;;;22.50;98.40;;;;;;5051381;28;21173;-71
2022/08/31 11:34:49;;;;;;;1999.90;999.90;;;22.50;99.00;;;;;;5049998;28;20464;-72
2022/08/31 11:37:53;;;;;;;1999.90;999.90;;;22.50;99.10;;;;;;5052127;28;20489;-72
2022/08/31 11:40:57;;;;;;;1999.90;999.90;;;22.80;98.90;;;;;;5053582;28;21876;-69
2022/08/31 11:43:42;;;;;;;1999.90;999.90;;;23.00;98.20;;;;;;5065471;28;20487;-71
2022/08/31 11:46:58;;;;;;;1999.90;999.90;;;23.00;97.50;;;;;;5059236;28;20462;-72
2022/08/31 11:49:49;;;;;;;1999.90;999.90;;;22.80;97.30;;;;;;5046699;28;20481;-72
2022/08/31 11:52:33;;;;;;;1999.90;999.90;;;22.30;97.90;;;;;;5042436;28;20462;-72
2022/08/31 11:55:13;;;;;;;1999.90;999.90;;;22.30;98.10;;;;;;5051687;28;20513;-73
2022/08/31 11:58:16;;;;;;;1999.90;999.90;;;22.30;97.70;;;;;;5053057;28;20520;-72
2022/08/31 12:00:46;;;;;;;1999.90;999.90;;;22.40;98.00;;;;;;5051221;28;20481;-70
2022/08/31 12:03:49;;;;;;;1999.90;999.90;;;22.50;97.70;;;;;;5051628;28;20470;-72
2022/08/31 12:06:58;;;;;;;1999.90;999.90;;;22.50;98.00;;;;;;5050725;28;20946;-71
2022/08/31 12:09:46;;;;;;;1999.90;999.90;;;22.90;97.80;;;;;;5053386;28;20516;-71
2022/08/31 12:12:28;;;;;;;1999.90;999.90;;;23.00;97.00;;;;;;5054424;28;20454;-73
2022/08/31 12:15:06;;;;;;;1999.90;999.90;;;22.90;97.40;;;;;;5050909;28;20462;-71
2022/08/31 12:17:46;;;;;;;1999.90;999.90;;;23.10;96.50;;;;;;5050268;28;20534;-72
2022/08/31 12:20:21;;;;;;;1999.90;999.90;;;23.30;96.70;;;;;;5060340;28;20485;-73
2022/08/31 12:23:36;;;;;;;1999.90;999.90;;;23.60;95.70;;;;;;5049638;28;20453;-72
2022/08/31 12:26:34;;;;;;;1999.90;999.90;;;23.30;95.80;;;;;;5043799;28;20503;-71
2022/08/31 12:29:20;;;;;;;1999.90;999.90;;;22.90;96.30;;;;;;5040608;28;22240;-71
2022/08/31 12:32:03;;;;;;;1999.90;999.90;;;23.10;97.10;;;;;;5050018;28;20454;-70